createdAt,value
2022-12-23T17:41:04.706Z,954.87
2022-12-23T17:42:04.749Z,954.81
2022-12-23T17:43:04.463Z,954.72
2022-12-23T17:44:04.457Z,954.82
2022-12-23T17:45:04.535Z,954.71
2022-12-23T17:46:04.620Z,954.66
2022-12-23T17:47:04.427Z,954.70
2022-12-23T17:48:04.482Z,954.81
2022-12-23T17:49:04.452Z,954.70
2022-12-23T17:50:04.445Z,954.70
2022-12-23T17:51:04.408Z,954.70
2022-12-23T17:52:04.926Z,954.72
2022-12-23T17:53:04.509Z,954.77
2022-12-23T17:54:07.461Z,954.79
2022-12-23T17:55:04.396Z,954.83
2022-12-23T17:56:04.327Z,954.76
2022-12-23T17:57:04.335Z,954.85
2022-12-23T17:58:04.355Z,954.81
2022-12-23T17:59:04.301Z,954.89
2022-12-23T18:00:04.324Z,954.86
2022-12-23T18:01:04.475Z,954.83
2022-12-23T18:02:04.303Z,954.87
2022-12-23T18:03:04.321Z,954.79
2022-12-23T18:04:04.291Z,954.86
2022-12-23T18:05:04.291Z,954.87
2022-12-23T18:06:04.263Z,954.80
2022-12-23T18:07:04.270Z,954.88
2022-12-23T18:08:05.083Z,954.88
2022-12-23T18:09:08.257Z,954.86
2022-12-23T18:10:04.227Z,954.83
2022-12-23T18:11:04.599Z,954.93
2022-12-23T18:12:04.322Z,954.91
2022-12-23T18:13:04.223Z,954.92
2022-12-23T18:14:04.143Z,954.89
2022-12-23T18:15:04.148Z,954.91
2022-12-23T18:16:05.083Z,954.88
2022-12-23T18:17:04.234Z,954.93
2022-12-23T18:18:04.118Z,954.92
2022-12-23T18:19:04.131Z,954.93
2022-12-23T18:20:04.222Z,954.86
2022-12-23T18:21:04.076Z,954.84
2022-12-23T18:22:04.074Z,954.91
2022-12-23T18:23:04.234Z,954.99
2022-12-23T18:24:07.287Z,954.90
2022-12-23T18:25:04.123Z,954.96
2022-12-23T18:26:04.087Z,954.97
2022-12-23T18:27:04.083Z,955.04
2022-12-23T18:28:04.034Z,955.01
2022-12-23T18:29:03.976Z,955.05
2022-12-23T18:30:04.006Z,955.09
2022-12-23T18:31:04.055Z,955.13
2022-12-23T18:32:04.004Z,955.06
2022-12-23T18:33:03.965Z,955.09
2022-12-23T18:34:03.920Z,955.11
2022-12-23T18:35:03.989Z,955.06
2022-12-23T18:36:03.953Z,955.12
2022-12-23T18:37:03.939Z,955.11
2022-12-23T18:38:03.881Z,955.21
2022-12-23T18:39:06.937Z,955.16
2022-12-23T18:40:03.893Z,955.23
2022-12-23T18:41:03.882Z,955.13
2022-12-23T18:42:03.889Z,955.31
2022-12-23T18:43:03.875Z,955.19
2022-12-23T18:44:03.877Z,955.27
2022-12-23T18:45:03.896Z,955.27
2022-12-23T18:46:03.844Z,955.28
2022-12-23T18:47:03.865Z,955.30
2022-12-23T18:48:03.853Z,955.21
2022-12-23T18:49:03.776Z,955.25
2022-12-23T18:50:03.793Z,955.21
2022-12-23T18:51:03.825Z,955.15
2022-12-23T18:52:03.819Z,955.21
2022-12-23T18:53:03.766Z,955.37
2022-12-23T18:54:06.781Z,955.36
2022-12-23T18:55:03.763Z,955.30
2022-12-23T18:56:03.769Z,955.44
2022-12-23T18:57:03.702Z,955.35
2022-12-23T18:58:03.666Z,955.33
2022-12-23T18:59:03.726Z,955.30
2022-12-23T19:00:04.066Z,955.29
2022-12-23T19:01:03.707Z,955.25
2022-12-23T19:02:03.738Z,955.28
2022-12-23T19:03:03.734Z,955.29
2022-12-23T19:04:03.762Z,955.33
2022-12-23T19:05:03.742Z,955.24
2022-12-23T19:06:04.574Z,955.32
2022-12-23T19:07:03.605Z,955.30
2022-12-23T19:08:03.597Z,955.42
2022-12-23T19:09:07.534Z,955.43
2022-12-23T19:10:03.677Z,955.37
2022-12-23T19:11:03.601Z,955.39
2022-12-23T19:12:03.597Z,955.31
2022-12-23T19:13:03.510Z,955.37
2022-12-23T19:14:03.551Z,955.45
2022-12-23T19:15:03.723Z,955.42
2022-12-23T19:16:03.605Z,955.24
2022-12-23T19:17:03.560Z,955.20
2022-12-23T19:18:03.472Z,955.25
2022-12-23T19:19:03.473Z,955.22
2022-12-23T19:20:03.458Z,955.07
2022-12-23T19:21:03.504Z,955.06
2022-12-23T19:22:03.496Z,955.07
2022-12-23T19:23:03.425Z,955.01
2022-12-23T19:24:06.457Z,955.01
2022-12-23T19:25:06.550Z,955.11
2022-12-23T19:26:04.348Z,955.17
2022-12-23T19:27:03.427Z,955.17
2022-12-23T19:28:03.386Z,955.25
2022-12-23T19:29:03.370Z,955.29
2022-12-23T19:30:03.406Z,955.33
2022-12-23T19:31:03.359Z,955.33
2022-12-23T19:32:03.434Z,955.44
2022-12-23T19:33:03.348Z,955.39
2022-12-23T19:34:03.357Z,955.47
2022-12-23T19:35:04.344Z,955.38
2022-12-23T19:36:03.344Z,955.41
2022-12-23T19:37:03.327Z,955.47
2022-12-23T19:38:03.273Z,955.56
2022-12-23T19:39:06.262Z,955.57
2022-12-23T19:40:03.334Z,955.62
2022-12-23T19:41:03.522Z,955.55
2022-12-23T19:42:03.211Z,955.59
2022-12-23T19:43:03.320Z,955.63
2022-12-23T19:44:03.221Z,955.54
2022-12-23T19:45:03.487Z,955.54
2022-12-23T19:46:03.292Z,955.51
2022-12-23T19:47:03.188Z,955.54
2022-12-23T19:48:03.173Z,955.55
2022-12-23T19:49:03.257Z,955.62
2022-12-23T19:50:03.164Z,955.72
2022-12-23T19:51:03.334Z,955.79
2022-12-23T19:52:04.110Z,955.77
2022-12-23T19:53:04.088Z,955.71
2022-12-23T19:54:06.144Z,955.69
2022-12-23T19:55:03.103Z,955.69
2022-12-23T19:56:03.099Z,955.68
2022-12-23T19:57:03.156Z,955.64
2022-12-23T19:58:03.079Z,955.60
2022-12-23T19:59:03.084Z,955.59
2022-12-23T20:00:03.062Z,955.67
2022-12-23T20:01:03.026Z,955.63
2022-12-23T20:02:03.126Z,955.58
2022-12-23T20:03:03.054Z,955.61
2022-12-23T20:04:03.017Z,955.58
2022-12-23T20:05:03.131Z,955.59
2022-12-23T20:06:03.006Z,955.62
2022-12-23T20:07:03.018Z,955.63
2022-12-23T20:08:02.962Z,955.68
2022-12-23T20:09:05.950Z,955.76
2022-12-23T20:10:02.968Z,955.73
2022-12-23T20:11:02.937Z,955.74
2022-12-23T20:12:02.987Z,955.74
2022-12-23T20:13:02.921Z,955.72
2022-12-23T20:14:02.908Z,955.78
2022-12-23T20:15:02.963Z,955.75
2022-12-23T20:16:03.017Z,955.80
2022-12-23T20:17:03.242Z,955.86
2022-12-23T20:18:02.871Z,955.93
2022-12-23T20:19:02.881Z,955.96
2022-12-23T20:20:02.840Z,956.01
2022-12-23T20:21:02.949Z,956.05
2022-12-23T20:22:02.851Z,956.00
2022-12-23T20:23:02.818Z,956.11
2022-12-23T20:24:05.863Z,956.12
2022-12-23T20:25:02.808Z,956.13
2022-12-23T20:26:02.780Z,956.14
2022-12-23T20:27:06.328Z,956.11
2022-12-23T20:28:02.800Z,956.07
2022-12-23T20:29:02.752Z,956.10
2022-12-23T20:30:02.739Z,956.26
2022-12-23T20:31:02.766Z,956.20
2022-12-23T20:32:02.708Z,956.21
2022-12-23T20:33:02.870Z,956.17
2022-12-23T20:34:02.673Z,956.17
2022-12-23T20:35:02.687Z,956.23
2022-12-23T20:36:02.707Z,956.27
2022-12-23T20:37:02.653Z,956.25
2022-12-23T20:38:02.631Z,956.26
2022-12-23T20:39:05.633Z,956.34
2022-12-23T20:40:02.637Z,956.24
2022-12-23T20:41:02.629Z,956.27
2022-12-23T20:42:02.676Z,956.17
2022-12-23T20:43:02.610Z,956.13
2022-12-23T20:45:03.569Z,956.10
2022-12-23T20:46:02.658Z,956.09
2022-12-23T20:47:02.827Z,956.10
2022-12-23T20:48:02.528Z,956.10
2022-12-23T20:49:02.574Z,956.02
2022-12-23T20:50:02.522Z,956.21
2022-12-23T20:51:02.539Z,956.26
2022-12-23T20:52:02.496Z,956.22
2022-12-23T20:53:02.475Z,956.27
2022-12-23T20:54:05.526Z,956.28
2022-12-23T20:55:02.510Z,956.21
2022-12-23T20:56:02.507Z,956.24
2022-12-23T20:57:02.488Z,956.28
2022-12-23T20:58:02.443Z,956.35
2022-12-23T20:59:02.430Z,956.29
2022-12-23T21:00:02.575Z,956.23
2022-12-23T21:01:02.406Z,956.46
2022-12-23T21:02:02.528Z,956.36
2022-12-23T21:03:08.411Z,956.34
2022-12-23T21:04:02.409Z,956.32
2022-12-23T21:05:02.423Z,956.45
2022-12-23T21:06:02.381Z,956.48
2022-12-23T21:07:02.365Z,956.43
2022-12-23T21:08:02.358Z,956.32
2022-12-23T21:09:05.330Z,956.17
2022-12-23T21:10:02.323Z,956.24
2022-12-23T21:11:02.329Z,956.30
2022-12-23T21:12:02.310Z,956.28
2022-12-23T21:13:02.302Z,956.18
2022-12-23T21:14:06.807Z,956.21
2022-12-23T21:15:02.290Z,956.28
2022-12-23T21:16:02.482Z,956.34
2022-12-23T21:17:02.296Z,956.38
2022-12-23T21:18:02.332Z,956.33
2022-12-23T21:19:02.247Z,956.21
2022-12-23T21:20:07.565Z,956.32
2022-12-23T21:21:02.195Z,956.34
2022-12-23T21:22:02.218Z,956.36
2022-12-23T21:23:02.187Z,956.26
2022-12-23T21:24:05.260Z,956.43
2022-12-23T21:25:02.217Z,956.45
2022-12-23T21:26:02.169Z,956.43
2022-12-23T21:27:02.412Z,956.53
2022-12-23T21:28:02.151Z,956.50
2022-12-23T21:29:02.110Z,956.53
2022-12-23T21:30:02.203Z,956.55
2022-12-23T21:31:02.150Z,956.51
2022-12-23T21:32:02.177Z,956.57
2022-12-23T21:33:02.088Z,956.70
2022-12-23T21:34:02.114Z,956.49
2022-12-23T21:35:02.048Z,956.57
2022-12-23T21:36:02.090Z,956.50
2022-12-23T21:37:02.202Z,956.52
2022-12-23T21:38:02.042Z,956.58
2022-12-23T21:39:05.018Z,956.51
2022-12-23T21:40:02.003Z,956.55
2022-12-23T21:41:02.218Z,956.45
2022-12-23T21:42:02.036Z,956.47
2022-12-23T21:43:08.322Z,956.50
2022-12-23T21:44:01.975Z,956.50
2022-12-23T21:45:01.981Z,956.44
2022-12-23T21:46:01.995Z,956.49
2022-12-23T21:47:01.980Z,956.45
2022-12-23T21:48:01.922Z,956.44
2022-12-23T21:49:01.972Z,956.46
2022-12-23T21:50:01.914Z,956.45
2022-12-23T21:51:01.911Z,956.36
2022-12-23T21:52:01.891Z,956.36
2022-12-23T21:53:01.856Z,956.37
2022-12-23T21:54:05.914Z,956.40
2022-12-23T21:55:01.897Z,956.41
2022-12-23T21:56:01.886Z,956.40
2022-12-23T21:57:01.837Z,956.46
2022-12-23T21:58:02.811Z,956.51
2022-12-23T21:59:01.816Z,956.53
2022-12-23T22:00:02.824Z,956.55
2022-12-23T22:01:01.836Z,956.63
2022-12-23T22:02:01.821Z,956.63
2022-12-23T22:03:01.772Z,956.63
2022-12-23T22:04:01.737Z,956.60
2022-12-23T22:05:01.944Z,956.64
2022-12-23T22:06:03.353Z,956.69
2022-12-23T22:07:01.825Z,956.65
2022-12-23T22:08:01.716Z,956.69
2022-12-23T22:09:04.707Z,956.64
2022-12-23T22:10:01.750Z,956.67
2022-12-23T22:11:01.664Z,956.65
2022-12-23T22:12:01.828Z,956.67
2022-12-23T22:13:01.752Z,956.74
2022-12-23T22:14:01.777Z,956.81
2022-12-23T22:15:05.051Z,956.69
2022-12-23T22:16:01.657Z,956.73
2022-12-23T22:17:01.715Z,956.75
2022-12-23T22:18:01.656Z,956.79
2022-12-23T22:19:01.628Z,956.75
2022-12-23T22:20:01.584Z,956.69
2022-12-23T22:21:01.630Z,956.70
2022-12-23T22:22:01.694Z,956.59
2022-12-23T22:23:01.542Z,956.50
2022-12-23T22:24:04.781Z,956.48
2022-12-23T22:25:01.683Z,956.47
2022-12-23T22:26:01.593Z,956.49
2022-12-23T22:27:01.571Z,956.49
2022-12-23T22:28:01.610Z,956.49
2022-12-23T22:29:01.538Z,956.54
2022-12-23T22:30:01.472Z,956.53
